createdAt,value
2022-10-01T00:01:51.876Z,96273.59
2022-10-01T00:04:20.490Z,96269.78
2022-10-01T00:06:48.732Z,96273.22
2022-10-01T00:09:20.634Z,96275.63
2022-10-01T00:11:48.836Z,96256.78
2022-10-01T00:14:17.442Z,96326.59
2022-10-01T00:16:45.762Z,96289.38
2022-10-01T00:19:15.213Z,96277.53
2022-10-01T00:21:43.441Z,96293.25
2022-10-01T00:24:14.417Z,96234.34
2022-10-01T00:26:45.541Z,96293.56
2022-10-01T00:29:15.854Z,96319.50
2022-10-01T00:31:44.380Z,96305.53
2022-10-01T00:34:15.750Z,96315.66
2022-10-01T00:36:44.400Z,96257.81
2022-10-01T00:39:13.584Z,96253.13
2022-10-01T00:41:43.945Z,96037.84
2022-10-01T00:44:30.191Z,96317.47
2022-10-01T00:47:03.502Z,96276.81
2022-10-01T00:49:35.616Z,96308.50
2022-10-01T00:52:08.072Z,96329.94
2022-10-01T00:54:43.040Z,96262.53
2022-10-01T00:57:15.264Z,96282.44
2022-10-01T00:59:43.959Z,96251.06
2022-10-01T01:02:12.399Z,96266.25
2022-10-01T01:04:41.917Z,96267.00
2022-10-01T01:07:10.924Z,96265.59
2022-10-01T01:09:44.618Z,96301.66
2022-10-01T01:12:28.004Z,96181.56
2022-10-01T01:15:10.400Z,96189.81
2022-10-01T01:17:49.184Z,96258.47
2022-10-01T01:20:57.083Z,96284.53
2022-10-01T01:24:15.394Z,96264.53
2022-10-01T01:26:56.303Z,96178.13
2022-10-01T01:29:33.993Z,96217.84
2022-10-01T01:32:14.925Z,96270.28
2022-10-01T01:34:46.578Z,96256.16
2022-10-01T01:37:19.864Z,96234.44
2022-10-01T01:39:54.268Z,96248.16
2022-10-01T01:42:28.522Z,96255.03
2022-10-01T01:45:01.307Z,96144.03
2022-10-01T01:47:32.834Z,96201.03
2022-10-01T01:50:04.001Z,96228.97
2022-10-01T01:52:32.320Z,96238.88
2022-10-01T01:55:05.228Z,96208.88
2022-10-01T01:57:33.495Z,96216.69
2022-10-01T02:00:03.964Z,96223.75
2022-10-01T02:02:38.100Z,96212.38
2022-10-01T02:05:10.952Z,96137.44
2022-10-01T02:08:46.085Z,96183.91
2022-10-01T02:11:28.333Z,96166.63
2022-10-01T02:14:22.550Z,96207.34
2022-10-01T02:17:01.423Z,96207.03
2022-10-01T02:19:37.274Z,96164.38
2022-10-01T02:22:13.641Z,96233.97
2022-10-01T02:24:49.430Z,96199.88
2022-10-01T02:27:25.401Z,96177.25
2022-10-01T02:29:55.669Z,96237.47
2022-10-01T02:32:25.417Z,96231.97
2022-10-01T02:34:55.924Z,96190.31
2022-10-01T02:37:28.007Z,96142.69
2022-10-01T02:39:58.519Z,96206.75
2022-10-01T02:42:29.665Z,96183.72
2022-10-01T02:45:02.606Z,96196.09
2022-10-01T02:47:36.120Z,96148.16
2022-10-01T02:50:05.493Z,96187.94
2022-10-01T02:52:39.239Z,96207.25
2022-10-01T02:55:11.843Z,96223.78
2022-10-01T02:57:39.293Z,96138.38
2022-10-01T03:00:12.269Z,96154.75
2022-10-01T03:02:42.264Z,96114.88
2022-10-01T03:05:10.856Z,96148.09
2022-10-01T03:07:40.793Z,96148.56
2022-10-01T03:10:10.990Z,96161.16
2022-10-01T03:12:45.106Z,96194.31
2022-10-01T03:15:14.403Z,96170.47
2022-10-01T03:17:44.295Z,96164.72
2022-10-01T03:20:13.712Z,96172.09
2022-10-01T03:22:41.873Z,96199.06
2022-10-01T03:25:10.708Z,96144.06
2022-10-01T03:27:38.972Z,96185.25
2022-10-01T03:30:08.607Z,96154.53
2022-10-01T03:32:36.831Z,96237.34
2022-10-01T03:35:07.557Z,96123.41
2022-10-01T03:37:35.749Z,96099.75
2022-10-01T03:40:04.377Z,96157.19
2022-10-01T03:42:32.531Z,96161.16
2022-10-01T03:45:00.725Z,96180.16
2022-10-01T03:47:28.878Z,96119.56
2022-10-01T03:49:57.105Z,96137.34
2022-10-01T03:52:26.629Z,96168.59
2022-10-01T03:54:54.899Z,96140.31
2022-10-01T03:57:23.127Z,96167.88
2022-10-01T03:59:51.535Z,96126.22
2022-10-01T04:02:20.358Z,96204.16
2022-10-01T04:05:14.595Z,96140.81
2022-10-01T04:07:45.081Z,96126.97
2022-10-01T04:10:13.845Z,96137.31
2022-10-01T04:12:42.015Z,96090.13
2022-10-01T04:15:11.309Z,96147.69
2022-10-01T04:17:42.703Z,96105.41
2022-10-01T04:20:13.992Z,96126.75
2022-10-01T04:22:44.556Z,96156.00
2022-10-01T04:25:14.158Z,96138.53
2022-10-01T04:27:44.695Z,96157.03
2022-10-01T04:30:12.964Z,96161.91
2022-10-01T04:32:41.128Z,96136.66
2022-10-01T04:35:11.240Z,96151.41
2022-10-01T04:37:39.617Z,96097.41
2022-10-01T04:40:10.752Z,96108.97
2022-10-01T04:42:41.898Z,96066.34
2022-10-01T04:45:11.920Z,96102.88
2022-10-01T04:47:48.396Z,96090.44
2022-10-01T04:50:17.331Z,96090.28
2022-10-01T04:52:47.586Z,96090.63
2022-10-01T04:55:20.379Z,96091.16
2022-10-01T04:57:49.419Z,96065.75
2022-10-01T05:00:24.343Z,96098.84
2022-10-01T05:02:53.688Z,96078.53
2022-10-01T05:05:24.478Z,96094.25
2022-10-01T05:07:52.655Z,96098.19
2022-10-01T05:10:24.881Z,96083.13
2022-10-01T05:12:53.012Z,96081.50
2022-10-01T05:15:21.719Z,96124.72
2022-10-01T05:17:49.894Z,96126.88
2022-10-01T05:20:20.483Z,96052.69
2022-10-01T05:22:49.966Z,95934.47
2022-10-01T05:25:19.337Z,96110.47
2022-10-01T05:27:49.033Z,96104.41
2022-10-01T05:30:24.017Z,96069.84
2022-10-01T05:32:57.010Z,96128.31
2022-10-01T05:35:25.915Z,96091.78
2022-10-01T05:37:58.880Z,96089.69
2022-10-01T05:40:29.042Z,96060.53
2022-10-01T05:43:00.322Z,96111.13
2022-10-01T05:45:30.054Z,96085.75
2022-10-01T05:48:00.208Z,96100.84
2022-10-01T05:50:31.217Z,96090.31
2022-10-01T05:53:00.181Z,96088.03
2022-10-01T05:55:33.369Z,96087.56
2022-10-01T05:58:05.643Z,96011.38
2022-10-01T06:00:35.199Z,96102.97
2022-10-01T06:03:05.817Z,96040.22
2022-10-01T06:05:36.200Z,96056.28
2022-10-01T06:08:10.650Z,96057.41
2022-10-01T06:10:39.864Z,96107.41
2022-10-01T06:13:09.480Z,96040.25
2022-10-01T06:15:39.937Z,96082.00
2022-10-01T06:18:10.804Z,96075.28
2022-10-01T06:20:40.676Z,96066.94
2022-10-01T06:23:12.469Z,96041.22
2022-10-01T06:25:41.993Z,96095.97
2022-10-01T06:28:14.534Z,96037.94
2022-10-01T06:30:43.629Z,96069.56
2022-10-01T06:33:14.584Z,96008.59
2022-10-01T06:35:46.884Z,96023.53
2022-10-01T06:38:16.166Z,96048.94
2022-10-01T06:40:44.752Z,95946.47
2022-10-01T06:43:14.325Z,96068.44
2022-10-01T06:45:43.247Z,96087.13
2022-10-01T06:48:15.878Z,96055.63
2022-10-01T06:50:46.262Z,96012.84
2022-10-01T06:53:16.411Z,96066.44
2022-10-01T06:55:45.531Z,96057.91
2022-10-01T06:58:18.393Z,96061.19
2022-10-01T07:00:47.485Z,96021.47
2022-10-01T07:03:18.660Z,96036.28
2022-10-01T07:05:47.899Z,96037.59
2022-10-01T07:08:16.218Z,96011.66
2022-10-01T07:10:45.550Z,96028.41
2022-10-01T07:13:17.498Z,95956.50
2022-10-01T07:15:47.124Z,96076.63
2022-10-01T07:18:15.563Z,96060.88
2022-10-01T07:20:43.760Z,96077.59
2022-10-01T07:23:13.952Z,96005.75
2022-10-01T07:25:43.125Z,95916.38
2022-10-01T07:28:18.132Z,96029.38
2022-10-01T07:30:49.217Z,96092.06
2022-10-01T07:33:19.865Z,96089.09
2022-10-01T07:35:48.304Z,96019.72
2022-10-01T07:38:16.704Z,96050.69
2022-10-01T07:40:44.969Z,96074.31
2022-10-01T07:43:15.589Z,96067.13
2022-10-01T07:45:47.010Z,96054.97
2022-10-01T07:48:15.966Z,96089.09
2022-10-01T07:50:46.108Z,96075.66
2022-10-01T07:53:14.830Z,96010.09
2022-10-01T07:55:44.685Z,96062.00
2022-10-01T07:58:13.143Z,96094.53
2022-10-01T08:00:43.397Z,96021.81
2022-10-01T08:03:14.200Z,96098.59
2022-10-01T08:05:43.406Z,96056.94
2022-10-01T08:08:12.820Z,96025.78
2022-10-01T08:10:42.784Z,96050.19
2022-10-01T08:13:15.373Z,96095.31
2022-10-01T08:15:47.478Z,96041.84
2022-10-01T08:18:15.860Z,96082.50
2022-10-01T08:20:44.241Z,96074.81
2022-10-01T08:23:14.769Z,96096.28
2022-10-01T08:25:45.045Z,96086.63
2022-10-01T08:28:13.935Z,96056.78
2022-10-01T08:30:45.255Z,96042.84
2022-10-01T08:33:15.176Z,96064.81
2022-10-01T08:35:44.474Z,96070.72
2022-10-01T08:38:16.152Z,96020.56
2022-10-01T08:40:47.746Z,96073.53
2022-10-01T08:43:32.698Z,96036.97
2022-10-01T08:46:06.279Z,96026.31
2022-10-01T08:48:56.050Z,96069.41
2022-10-01T08:51:32.641Z,96069.91
2022-10-01T08:54:09.872Z,96029.25
2022-10-01T08:56:44.435Z,96028.56
2022-10-01T08:59:32.371Z,96050.38
2022-10-01T09:02:01.985Z,96026.13
2022-10-01T09:04:30.831Z,96095.31
2022-10-01T09:07:13.669Z,96048.75
2022-10-01T09:09:56.094Z,96079.91
2022-10-01T09:12:38.720Z,96020.91
2022-10-01T09:15:27.058Z,96045.47
2022-10-01T09:18:11.393Z,96044.16
2022-10-01T09:20:43.163Z,96012.00
2022-10-01T09:23:21.319Z,96064.81
2022-10-01T09:25:51.688Z,96095.66
2022-10-01T09:28:23.726Z,96095.31
2022-10-01T09:30:57.561Z,96025.81
2022-10-01T09:33:32.806Z,96028.41
2022-10-01T09:36:13.545Z,96069.72
2022-10-01T09:38:44.227Z,96050.88
2022-10-01T09:41:14.646Z,96056.94
2022-10-01T09:43:44.981Z,96001.22
2022-10-01T09:46:17.416Z,95925.06
2022-10-01T09:48:57.496Z,95985.75
2022-10-01T09:51:34.066Z,96154.31
2022-10-01T09:54:15.001Z,96066.91
2022-10-01T09:56:49.600Z,96017.09
2022-10-01T09:59:23.776Z,95971.63
2022-10-01T10:01:58.882Z,96053.00
2022-10-01T10:04:31.382Z,96029.69
2022-10-01T10:07:03.759Z,95961.25
2022-10-01T10:09:34.802Z,96065.13
2022-10-01T10:12:03.829Z,96068.44
2022-10-01T10:14:35.802Z,96022.16
2022-10-01T10:17:10.459Z,96051.69
2022-10-01T10:19:41.379Z,96018.53
2022-10-01T10:22:19.449Z,96034.94
2022-10-01T10:24:47.728Z,95968.03
2022-10-01T10:27:26.804Z,95937.34
2022-10-01T10:30:08.644Z,95992.91
2022-10-01T10:32:37.549Z,96011.97
2022-10-01T10:35:13.256Z,96057.72
2022-10-01T10:37:48.363Z,96069.56
2022-10-01T10:40:23.582Z,95916.00
2022-10-01T10:42:56.965Z,96077.53
2022-10-01T10:45:33.637Z,95974.03
2022-10-01T10:48:04.570Z,96020.91
2022-10-01T10:50:38.681Z,96007.00
2022-10-01T10:53:22.207Z,95995.38
2022-10-01T10:56:01.274Z,96002.69
2022-10-01T10:58:31.615Z,96023.72
2022-10-01T11:01:03.260Z,96010.56
2022-10-01T11:03:33.631Z,96018.72
2022-10-01T11:06:12.072Z,95995.44
2022-10-01T11:08:41.605Z,95994.28
2022-10-01T11:11:24.480Z,96029.03
2022-10-01T11:14:10.461Z,96026.16
2022-10-01T11:16:56.590Z,96039.94
2022-10-01T11:19:42.531Z,95959.69
2022-10-01T11:22:28.273Z,96053.94
2022-10-01T11:25:19.785Z,95997.97
2022-10-01T11:27:59.631Z,95991.94
2022-10-01T11:30:35.422Z,95996.44
2022-10-01T11:33:12.248Z,95961.91
2022-10-01T11:35:58.692Z,95990.41
2022-10-01T11:38:50.513Z,95947.72
2022-10-01T11:41:40.893Z,96012.00
2022-10-01T11:44:15.407Z,96011.53
2022-10-01T11:46:53.508Z,96001.00
2022-10-01T11:49:45.328Z,95928.56
2022-10-01T11:52:29.898Z,96030.34
2022-10-01T11:55:27.535Z,95985.69
2022-10-01T11:58:19.130Z,95946.69
2022-10-01T12:01:00.569Z,95961.69
2022-10-01T12:03:38.617Z,96026.81
2022-10-01T12:06:26.111Z,96001.75
2022-10-01T12:09:03.143Z,95996.13
2022-10-01T12:11:38.571Z,96028.25
2022-10-01T12:14:13.882Z,96011.19
2022-10-01T12:16:49.874Z,95932.94
2022-10-01T12:19:24.996Z,95954.47
2022-10-01T12:21:58.212Z,95899.91
2022-10-01T12:24:31.373Z,96015.56
2022-10-01T12:27:39.432Z,96052.41
2022-10-01T12:30:12.244Z,96006.22
2022-10-01T12:33:02.585Z,96055.75
2022-10-01T12:35:50.707Z,96059.59
2022-10-01T12:38:42.160Z,96048.22
2022-10-01T12:41:29.676Z,96018.09
2022-10-01T12:44:28.397Z,96065.72
2022-10-01T12:47:12.850Z,96066.94
2022-10-01T12:49:51.186Z,96047.69
2022-10-01T12:52:34.372Z,96042.66
2022-10-01T12:55:56.533Z,96046.75
2022-10-01T12:59:06.188Z,96063.31
2022-10-01T13:01:54.933Z,96041.44
2022-10-01T13:04:45.965Z,96037.81
2022-10-01T13:07:38.532Z,96067.59
2022-10-01T13:10:24.067Z,96054.25
2022-10-01T13:13:04.315Z,96073.78
2022-10-01T13:15:37.752Z,96064.50
2022-10-01T13:18:21.411Z,96032.50
2022-10-01T13:20:58.240Z,96069.69
2022-10-01T13:23:34.125Z,96066.66
2022-10-01T13:26:10.456Z,96068.09
2022-10-01T13:29:07.211Z,96018.28
2022-10-01T13:31:55.085Z,96079.66
2022-10-01T13:34:37.520Z,96031.88
2022-10-01T13:37:17.894Z,96048.72
2022-10-01T13:39:47.396Z,96060.41
2022-10-01T13:42:26.087Z,96070.69
2022-10-01T13:44:58.214Z,96064.16
2022-10-01T13:47:28.558Z,96094.56
2022-10-01T13:50:01.031Z,96081.69
2022-10-01T13:52:29.789Z,96040.25
2022-10-01T13:54:59.779Z,95903.38
2022-10-01T13:57:34.166Z,96073.59
2022-10-01T14:00:21.207Z,96029.00
2022-10-01T14:03:07.200Z,96056.63
2022-10-01T14:05:41.236Z,96084.88
2022-10-01T14:08:25.389Z,96093.50
2022-10-01T14:11:42.167Z,96095.41
2022-10-01T14:14:32.152Z,96119.13
2022-10-01T14:17:01.523Z,96084.22
2022-10-01T14:19:31.926Z,96079.53
2022-10-01T14:22:18.898Z,96077.78
2022-10-01T14:25:09.097Z,96082.22
2022-10-01T14:27:48.584Z,96069.91
2022-10-01T14:30:21.944Z,96108.31
2022-10-01T14:33:12.184Z,96102.88
2022-10-01T14:35:50.720Z,96089.53
2022-10-01T14:38:22.586Z,96124.44
2022-10-01T14:40:52.373Z,96051.63
2022-10-01T14:43:23.963Z,96068.34
2022-10-01T14:45:59.399Z,96082.53
2022-10-01T14:48:30.345Z,96106.34
2022-10-01T14:51:03.351Z,96085.78
2022-10-01T14:53:35.645Z,96099.50
2022-10-01T14:56:12.674Z,96116.16
2022-10-01T14:58:45.096Z,96138.97
2022-10-01T15:01:19.860Z,96019.00
2022-10-01T15:03:49.074Z,96062.59
2022-10-01T15:06:20.671Z,96085.41
2022-10-01T15:08:51.348Z,96097.59
2022-10-01T15:11:24.249Z,96118.41
2022-10-01T15:13:56.295Z,96061.69
2022-10-01T15:16:28.295Z,96096.13
2022-10-01T15:19:00.765Z,96120.41
2022-10-01T15:21:38.870Z,96153.88
2022-10-01T15:24:20.169Z,96091.69
2022-10-01T15:26:49.793Z,96134.88
2022-10-01T15:29:19.090Z,96135.16
2022-10-01T15:31:50.284Z,96080.34
2022-10-01T15:34:20.851Z,96102.63
2022-10-01T15:36:51.669Z,96093.16
2022-10-01T15:39:29.926Z,96092.97
2022-10-01T15:41:59.631Z,96096.78
2022-10-01T15:44:45.516Z,96125.53
2022-10-01T15:47:25.494Z,96093.16
2022-10-01T15:50:21.090Z,96076.25
2022-10-01T15:53:00.149Z,96125.31
2022-10-01T15:55:35.535Z,96138.59
2022-10-01T15:58:17.776Z,96084.34
2022-10-01T16:01:00.619Z,96129.50
2022-10-01T16:03:34.299Z,96124.59
2022-10-01T16:06:04.385Z,96156.22
2022-10-01T16:08:39.665Z,96164.38
2022-10-01T16:11:20.885Z,96130.50
2022-10-01T16:13:51.187Z,96125.88
2022-10-01T16:16:26.610Z,96175.31
2022-10-01T16:19:00.029Z,96090.44
2022-10-01T16:21:29.367Z,96107.50
2022-10-01T16:23:59.219Z,96151.47
2022-10-01T16:26:38.485Z,96156.66
2022-10-01T16:29:20.862Z,96083.16
2022-10-01T16:31:49.281Z,96150.59
2022-10-01T16:34:20.144Z,96152.38
2022-10-01T16:36:48.665Z,96113.53
2022-10-01T16:39:18.277Z,96197.66
2022-10-01T16:42:06.328Z,96198.75
2022-10-01T16:44:40.830Z,96182.22
2022-10-01T16:47:12.699Z,96172.03
2022-10-01T16:49:41.385Z,96162.84
2022-10-01T16:52:14.337Z,96115.41
2022-10-01T16:54:44.800Z,96198.91
2022-10-01T16:57:13.042Z,96192.75
2022-10-01T16:59:41.301Z,96148.38
2022-10-01T17:02:13.375Z,96203.63
2022-10-01T17:04:42.348Z,96214.72
2022-10-01T17:07:11.700Z,96172.91
2022-10-01T17:09:41.001Z,96234.91
2022-10-01T17:12:11.906Z,96234.47
2022-10-01T17:14:40.610Z,96234.44
2022-10-01T17:17:08.806Z,96277.66
2022-10-01T17:19:37.063Z,96106.63
2022-10-01T17:22:05.273Z,96241.47
2022-10-01T17:24:33.432Z,96244.38
2022-10-01T17:27:01.692Z,96259.84
2022-10-01T17:29:33.414Z,96244.97
2022-10-01T17:32:01.804Z,96276.38
2022-10-01T17:34:30.084Z,96271.81
2022-10-01T17:36:59.808Z,96256.13
2022-10-01T17:39:28.128Z,96294.13
2022-10-01T17:41:56.705Z,96235.25
2022-10-01T17:44:25.311Z,96274.06
2022-10-01T17:46:54.946Z,96298.28
2022-10-01T17:49:26.162Z,96301.41
2022-10-01T17:51:54.459Z,96246.78
2022-10-01T17:54:23.232Z,96290.88
2022-10-01T17:56:54.877Z,96306.78
2022-10-01T17:59:23.255Z,96261.59
2022-10-01T18:01:53.253Z,96282.69
2022-10-01T18:04:23.249Z,96318.53
2022-10-01T18:06:52.541Z,96261.03
2022-10-01T18:09:21.724Z,96304.34
2022-10-01T18:11:50.022Z,96317.13
2022-10-01T18:14:18.924Z,96306.22
2022-10-01T18:16:47.260Z,96300.34
2022-10-01T18:22:13.669Z,96329.28
2022-10-01T18:24:43.314Z,96338.34
2022-10-01T18:27:11.607Z,96327.16
2022-10-01T18:29:40.079Z,96331.59
2022-10-01T18:32:17.963Z,96327.97
2022-10-01T18:34:54.410Z,96330.69
2022-10-01T18:37:37.586Z,96333.63
2022-10-01T18:40:12.344Z,96336.28
2022-10-01T18:42:49.316Z,96357.66
2022-10-01T18:45:23.572Z,96346.84
2022-10-01T18:48:14.520Z,96341.56
2022-10-01T18:50:49.390Z,96340.69
2022-10-01T18:53:56.652Z,96316.75
2022-10-01T18:56:33.067Z,96368.16
2022-10-01T18:59:34.042Z,96354.31
2022-10-01T19:02:21.575Z,96390.25
2022-10-01T19:05:38.853Z,96392.03
2022-10-01T19:08:23.492Z,96393.22
2022-10-01T19:11:02.816Z,96387.56
2022-10-01T19:13:41.086Z,96476.50
2022-10-01T19:16:24.973Z,96378.00
2022-10-01T19:19:16.734Z,96414.91
2022-10-01T19:21:51.273Z,96380.53
2022-10-01T19:24:41.634Z,96377.03
2022-10-01T19:27:25.869Z,96379.19
2022-10-01T19:30:07.340Z,96427.38
2022-10-01T19:32:42.552Z,96369.78
2022-10-01T19:35:20.196Z,96406.00
2022-10-01T19:37:53.572Z,96472.84
2022-10-01T19:40:30.186Z,96380.63
2022-10-01T19:43:09.274Z,96401.41
2022-10-01T19:45:49.649Z,96452.44
2022-10-01T19:48:22.889Z,96474.13
2022-10-01T19:50:58.257Z,96442.44
2022-10-01T19:53:31.853Z,96391.56
2022-10-01T19:56:02.649Z,96435.94
2022-10-01T19:58:34.418Z,96438.59
2022-10-01T20:01:04.572Z,96472.22
2022-10-01T20:04:04.064Z,96491.94
2022-10-01T20:06:36.120Z,96503.16
2022-10-01T20:09:41.400Z,96458.69
2022-10-01T20:12:22.859Z,96494.53
2022-10-01T20:15:10.442Z,96482.03
2022-10-01T20:17:56.862Z,96530.06
2022-10-01T20:20:33.544Z,96437.34
2022-10-01T20:23:27.309Z,96489.94
2022-10-01T20:26:09.858Z,96518.22
2022-10-01T20:28:47.991Z,96480.06
2022-10-01T20:31:23.630Z,96493.88
2022-10-01T20:34:01.482Z,96526.78
2022-10-01T20:36:38.815Z,96528.91
2022-10-01T20:39:17.295Z,96521.69
2022-10-01T20:41:49.446Z,96532.06
2022-10-01T20:44:25.308Z,96515.75
2022-10-01T20:47:00.764Z,96511.78
2022-10-01T20:49:35.583Z,96514.59
2022-10-01T20:52:11.124Z,96493.03
2022-10-01T20:54:46.562Z,96509.69
2022-10-01T20:57:27.041Z,96535.00
2022-10-01T20:59:58.224Z,96508.66
2022-10-01T21:02:35.947Z,96501.13
2022-10-01T21:05:10.540Z,96551.47
2022-10-01T21:07:49.115Z,96502.84
2022-10-01T21:10:25.642Z,96541.56
2022-10-01T21:13:03.760Z,96527.31
2022-10-01T21:15:49.538Z,96556.06
2022-10-01T21:18:35.066Z,96443.66
2022-10-01T21:21:15.473Z,96585.06
2022-10-01T21:24:01.136Z,96566.81
2022-10-01T21:26:45.476Z,96563.69
2022-10-01T21:29:29.692Z,96547.56
2022-10-01T21:32:12.536Z,96572.28
2022-10-01T21:34:59.244Z,96640.41
2022-10-01T21:37:34.604Z,96623.97
2022-10-01T21:40:16.980Z,96662.84
2022-10-01T21:42:55.426Z,96625.28
2022-10-01T21:45:33.560Z,96580.16
2022-10-01T21:48:19.062Z,96622.66
2022-10-01T21:50:55.700Z,96605.84
2022-10-01T21:53:59.120Z,96609.94
2022-10-01T21:56:44.928Z,96518.69
2022-10-01T21:59:35.447Z,96636.28
2022-10-01T22:02:19.303Z,96620.97
2022-10-01T22:04:54.172Z,96609.13
2022-10-01T22:07:35.444Z,96635.66
2022-10-01T22:10:16.784Z,96637.78
2022-10-01T22:12:49.720Z,96644.34
2022-10-01T22:15:24.991Z,96601.38
2022-10-01T22:17:56.376Z,96655.19
2022-10-01T22:20:30.610Z,96647.81
2022-10-01T22:23:03.453Z,96667.75
2022-10-01T22:25:32.984Z,96640.03
2022-10-01T22:28:06.572Z,96659.84
2022-10-01T22:30:39.984Z,96624.91
2022-10-01T22:33:14.033Z,96675.13
2022-10-01T22:35:50.840Z,96691.78
2022-10-01T22:38:25.915Z,96639.72
2022-10-01T22:41:06.847Z,96662.78
2022-10-01T22:43:36.226Z,96663.25
2022-10-01T22:46:47.285Z,96667.91
2022-10-01T22:49:31.340Z,96650.94
2022-10-01T22:52:14.710Z,96693.28
2022-10-01T22:55:00.796Z,96678.13
2022-10-01T22:57:52.171Z,96675.97
2022-10-01T23:00:21.296Z,96642.97
2022-10-01T23:03:07.791Z,96697.22
2022-10-01T23:05:51.887Z,96651.56
2022-10-01T23:08:30.164Z,96657.50
2022-10-01T23:11:10.952Z,96674.97
2022-10-01T23:13:53.009Z,96704.66
2022-10-01T23:16:34.260Z,96647.28
2022-10-01T23:19:21.138Z,96738.88
2022-10-01T23:21:59.469Z,96688.47
2022-10-01T23:24:44.665Z,96631.47
2022-10-01T23:27:30.235Z,96681.22
2022-10-01T23:30:11.675Z,96699.03
2022-10-01T23:33:11.137Z,96719.63
2022-10-01T23:35:49.746Z,96678.09
2022-10-01T23:38:47.073Z,96723.75
2022-10-01T23:41:22.808Z,96718.47
2022-10-01T23:43:58.476Z,96732.97
2022-10-01T23:46:31.757Z,96706.91
2022-10-01T23:49:06.864Z,96729.50
2022-10-01T23:51:41.259Z,96720.59
2022-10-01T23:54:22.312Z,96694.78
2022-10-01T23:56:55.467Z,96674.31
2022-10-01T23:59:32.752Z,96726.38
